Salyer, California
Current Conditions -  °F | °C
As of 9:53 PM on Tuesday 25 Nov 2014 (Local Time) from KACV Reporting Station
Clear Clear  
Wind Chill: 50°   Ceiling: Unl
Heat Index: 50°   Visibility: 10mi
Dew Point: 48°   Wind: 5mph
Humidity: 93%   Direction: 90°E
Pressure: 30.33"   Gusts: NA
Location:  40.89°N, 123.59°W
Report Text: KACV 260553Z AUTO 09004KT 10SM CLR 10/09 A3033 RMK AO2 SLP277 T01000089 10144 20089 56012
Loading
Personal Weather Stations






























Interactive Weather Map New forecast layout! Learn more

10-Day Weather Forecast

Advertisements
Track Severe Weather on mobile